Time;durP1;ratioP1;P1;durP2;ratioP2;P2;SDS_P1;SDS_P2;PMS_P1;PMS_P2;Temp;Humidity;BMP_temperature;BMP_pressure;BME280_temperature;BME280_humidity;BME280_pressure;Samples;Min_cycle;Max_cycle;Signal;HPM_P1;HPM_P2
2023/10/29 00:02:07;;;;;;;4.13;1.73;;;16.10;80.00;;;16.38;53.07;94867.75;5001410;28;20990;-62
2023/10/29 00:04:36;;;;;;;7.50;3.13;;;16.10;80.50;;;16.37;53.24;94870.59;5001354;28;21029;-58
2023/10/29 00:07:04;;;;;;;7.80;2.90;;;16.00;80.80;;;16.34;53.40;94865.63;5003705;28;20562;-57
2023/10/29 00:09:33;;;;;;;3.20;2.10;;;16.00;81.10;;;16.32;53.26;94863.16;5001479;28;20470;-64
2023/10/29 00:12:00;;;;;;;4.03;2.40;;;16.00;81.50;;;16.28;53.58;94862.69;5004171;28;20469;-57
2023/10/29 00:14:27;;;;;;;4.03;2.30;;;16.00;81.90;;;16.29;53.80;94874.94;5003366;28;20528;-63
2023/10/29 00:16:55;;;;;;;6.27;2.20;;;16.00;81.90;;;16.25;53.66;94867.50;5002120;28;20548;-59
2023/10/29 00:19:22;;;;;;;7.50;2.40;;;16.00;82.00;;;16.22;53.98;94874.00;5000854;28;21015;-59
2023/10/29 00:21:49;;;;;;;7.00;2.70;;;15.90;81.80;;;16.20;54.14;94875.16;5003279;28;20465;-59
2023/10/29 00:24:17;;;;;;;6.33;2.40;;;15.90;82.40;;;16.17;54.31;94872.84;5002385;28;20478;-62
2023/10/29 00:26:45;;;;;;;6.37;2.50;;;15.90;82.90;;;16.15;54.34;94877.50;5000756;28;20490;-63
2023/10/29 00:29:13;;;;;;;7.47;2.77;;;15.80;82.90;;;16.11;54.52;94883.16;5001757;28;20466;-64
2023/10/29 00:31:40;;;;;;;4.03;2.10;;;15.80;83.30;;;16.09;54.45;94884.34;5002769;28;20467;-64
2023/10/29 00:34:07;;;;;;;6.10;3.10;;;15.80;83.80;;;16.03;54.75;94883.19;5001099;28;20470;-62
2023/10/29 00:36:35;;;;;;;6.27;2.63;;;15.80;84.90;;;15.98;54.92;94882.88;5000784;28;20490;-59
2023/10/29 00:39:03;;;;;;;6.50;2.30;;;15.70;84.70;;;15.93;55.13;94883.41;5002697;28;20480;-63
2023/10/29 00:41:30;;;;;;;4.90;2.47;;;15.60;85.00;;;15.87;55.54;94881.44;5001962;28;20464;-58
2023/10/29 00:43:59;;;;;;;7.40;2.70;;;15.60;85.70;;;15.83;55.41;94879.31;5000290;28;20458;-58
2023/10/29 00:46:26;;;;;;;6.70;3.00;;;15.50;85.80;;;15.77;55.61;94884.31;5001532;28;20454;-64
2023/10/29 00:48:53;;;;;;;11.27;2.53;;;15.50;86.30;;;15.74;55.86;94881.16;5002781;28;20564;-58
2023/10/29 00:51:21;;;;;;;12.10;3.73;;;15.40;86.80;;;15.67;55.83;94885.47;5000367;28;20469;-62
2023/10/29 00:53:48;;;;;;;8.53;3.07;;;15.40;87.10;;;15.62;56.05;94882.53;5000565;28;20458;-63
2023/10/29 00:56:18;;;;;;;6.67;3.00;;;15.40;87.60;;;15.56;56.25;94890.13;5002577;28;20564;-62
2023/10/29 00:58:46;;;;;;;7.67;2.70;;;15.30;87.50;;;15.50;56.33;94890.81;5001754;28;20540;-58
2023/10/29 01:01:15;;;;;;;7.27;2.77;;;15.30;88.50;;;15.47;56.43;94882.38;4999954;28;20537;-62
2023/10/29 01:03:42;;;;;;;8.83;3.43;;;15.20;88.80;;;15.40;56.47;94885.72;5001351;28;20453;-58
2023/10/29 01:06:10;;;;;;;9.80;4.30;;;15.20;89.20;;;15.35;56.72;94887.19;5002468;28;20454;-59
2023/10/29 01:08:37;;;;;;;8.80;3.20;;;15.10;89.70;;;15.28;56.83;94886.25;5000764;28;20458;-63
2023/10/29 01:11:06;;;;;;;6.83;3.20;;;15.00;89.90;;;15.22;56.91;94893.03;5000838;28;20580;-58
2023/10/29 01:13:34;;;;;;;7.23;2.77;;;15.00;90.10;;;15.17;57.21;94890.88;4999760;28;21136;-62
2023/10/29 01:16:04;;;;;;;6.73;3.07;;;14.90;90.50;;;15.14;57.23;94893.88;5000541;28;20995;-61
2023/10/29 01:18:33;;;;;;;6.07;3.13;;;14.90;90.50;;;15.10;57.58;94904.97;5002018;28;20458;-63
2023/10/29 01:21:00;;;;;;;5.67;2.67;;;14.80;90.70;;;15.06;57.23;94899.19;5000582;28;20854;-62
2023/10/29 01:23:28;;;;;;;4.20;2.77;;;14.80;90.80;;;15.03;57.20;94904.81;4999202;28;20454;-58
2023/10/29 01:25:59;;;;;;;4.67;2.27;;;14.80;90.70;;;14.99;57.28;94899.00;5001209;28;20498;-59
2023/10/29 01:28:26;;;;;;;11.30;3.30;;;14.70;90.80;;;14.97;57.22;94900.19;5001834;28;20484;-63
2023/10/29 01:30:54;;;;;;;7.00;2.70;;;14.70;90.70;;;14.95;57.13;94900.34;5000359;28;20567;-60
2023/10/29 01:33:21;;;;;;;4.13;2.40;;;14.70;90.80;;;14.90;57.16;94902.66;5000047;28;20453;-62
2023/10/29 01:35:50;;;;;;;8.30;3.50;;;14.70;90.80;;;14.85;56.91;94902.31;5000247;28;20494;-60
2023/10/29 01:38:17;;;;;;;8.43;2.90;;;14.60;90.90;;;14.85;57.33;94912.91;5000348;28;20454;-63
2023/10/29 01:40:44;;;;;;;8.67;3.33;;;14.60;90.90;;;14.80;57.16;94909.94;5001939;28;20469;-58
2023/10/29 01:43:12;;;;;;;5.83;2.60;;;14.60;90.90;;;14.79;57.32;94918.88;5000264;28;20461;-59
2023/10/29 01:45:39;;;;;;;4.87;2.23;;;14.60;91.30;;;14.76;57.43;94919.19;4999322;28;20478;-62
2023/10/29 01:48:06;;;;;;;4.37;2.70;;;14.50;91.20;;;14.73;57.40;94916.88;5001321;28;20457;-60
2023/10/29 01:50:34;;;;;;;7.20;2.70;;;14.50;91.40;;;14.70;57.59;94916.22;5000801;28;20804;-63
2023/10/29 01:53:02;;;;;;;3.93;2.40;;;14.50;91.50;;;14.67;57.64;94915.69;4999614;28;20827;-59
2023/10/29 01:55:30;;;;;;;10.80;2.93;;;14.40;91.50;;;14.64;57.41;94910.72;5000331;28;20469;-63
2023/10/29 01:57:57;;;;;;;7.00;2.40;;;14.40;91.50;;;14.58;57.64;94914.00;5001414;28;20454;-63
2023/10/29 02:00:24;;;;;;;6.80;2.13;;;14.40;91.80;;;14.58;57.85;94922.78;4999237;28;20486;-59
2023/10/29 02:02:52;;;;;;;7.00;2.50;;;14.30;91.80;;;14.57;57.35;94925.59;4999156;28;20451;-62
2023/10/29 02:05:19;;;;;;;5.83;3.17;;;14.30;91.80;;;14.52;57.75;94928.75;5002416;28;20512;-58
2023/10/29 02:07:46;;;;;;;9.53;2.87;;;14.30;91.90;;;14.48;58.04;94932.69;5000012;28;20466;-63
2023/10/29 02:10:15;;;;;;;8.07;3.67;;;14.30;92.10;;;14.45;58.08;94930.38;5001416;28;20474;-58
2023/10/29 02:12:42;;;;;;;14.80;3.27;;;14.20;92.40;;;14.41;58.57;94927.22;4999742;28;20458;-59
2023/10/29 02:15:10;;;;;;;4.93;2.10;;;14.10;92.50;;;14.40;58.45;94930.03;4998651;28;21022;-59
2023/10/29 02:17:37;;;;;;;5.47;3.93;;;14.20;92.60;;;14.39;58.68;94933.66;5001094;28;20855;-59
2023/10/29 02:20:06;;;;;;;10.63;3.00;;;14.10;92.80;;;14.37;58.44;94930.34;5000873;28;20481;-63
2023/10/29 02:22:35;;;;;;;10.00;2.90;;;14.10;92.70;;;14.34;58.70;94921.75;4998837;28;20521;-63
2023/10/29 02:25:03;;;;;;;8.70;3.10;;;14.10;92.90;;;14.30;58.40;94919.59;4999816;28;20478;-61
2023/10/29 02:27:30;;;;;;;3.77;3.37;;;14.10;93.10;;;14.30;58.78;94927.53;5000878;28;20457;-62
2023/10/29 02:29:57;;;;;;;9.20;2.80;;;14.10;93.00;;;14.28;58.85;94926.84;4999460;28;20685;-59
2023/10/29 02:32:25;;;;;;;5.23;3.13;;;14.00;93.20;;;14.26;58.85;94921.72;5000635;28;20967;-58
2023/10/29 02:34:53;;;;;;;5.33;2.13;;;14.00;93.20;;;14.24;59.00;94926.34;5002921;28;20536;-63
2023/10/29 02:37:21;;;;;;;10.13;3.00;;;14.00;93.50;;;14.22;59.02;94923.06;5003355;28;20501;-62
2023/10/29 02:39:50;;;;;;;5.70;2.90;;;14.00;93.50;;;14.21;59.14;94926.69;5005070;28;21005;-63
2023/10/29 02:42:17;;;;;;;6.97;3.70;;;14.00;93.60;;;14.19;58.91;94922.53;5001825;28;20478;-64
2023/10/29 02:44:45;;;;;;;4.40;3.20;;;14.00;93.70;;;14.18;58.94;94926.19;5005982;28;20473;-59
2023/10/29 02:47:12;;;;;;;4.60;3.17;;;14.00;93.70;;;14.16;59.29;94928.97;5003304;28;20457;-64
2023/10/29 02:49:40;;;;;;;7.57;3.80;;;13.90;93.70;;;14.13;59.59;94926.66;5002589;28;20474;-60
2023/10/29 02:52:07;;;;;;;5.80;3.33;;;13.90;94.00;;;14.13;59.49;94934.59;5005011;28;20460;-59
2023/10/29 02:54:34;;;;;;;7.10;2.83;;;13.90;94.10;;;14.10;59.24;94938.38;5004540;28;20484;-62
2023/10/29 02:57:04;;;;;;;6.53;3.07;;;13.90;94.10;;;14.09;59.22;94942.00;5003074;28;20505;-58
2023/10/29 02:59:31;;;;;;;8.10;2.53;;;13.90;94.20;;;14.08;59.28;94936.88;5003562;28;20824;-59
2023/10/29 03:01:58;;;;;;;4.60;2.70;;;13.80;94.10;;;14.05;59.74;94945.97;5004481;28;20835;-58
2023/10/29 03:04:26;;;;;;;5.00;2.73;;;13.80;94.30;;;14.01;59.65;94939.34;5002838;28;20493;-62
2023/10/29 03:06:53;;;;;;;8.93;3.73;;;13.80;94.20;;;13.99;59.68;94941.31;5002609;28;20454;-59
2023/10/29 03:09:20;;;;;;;6.73;3.50;;;13.80;94.30;;;13.97;59.73;94949.41;5004711;28;20477;-57
2023/10/29 03:11:48;;;;;;;7.90;3.83;;;13.80;94.40;;;13.95;59.59;94956.66;5003493;28;20446;-63
2023/10/29 03:14:16;;;;;;;9.30;4.60;;;13.70;94.40;;;13.89;59.31;94953.81;5002345;28;20486;-62
2023/10/29 03:16:44;;;;;;;8.60;4.40;;;13.70;94.10;;;13.78;59.15;94957.56;5004168;28;20488;-62
2023/10/29 03:19:11;;;;;;;6.30;3.70;;;13.60;93.90;;;13.67;59.32;94956.03;5004519;28;20485;-63
2023/10/29 03:21:38;;;;;;;11.57;3.10;;;13.50;93.90;;;13.61;59.10;94956.66;5002357;28;20446;-58
2023/10/29 03:24:07;;;;;;;3.87;3.03;;;13.40;93.80;;;13.53;58.95;94957.44;5002867;28;20482;-63
2023/10/29 03:26:34;;;;;;;7.07;4.13;;;13.40;93.60;;;13.48;58.71;94964.16;5004723;28;20568;-63
2023/10/29 03:29:01;;;;;;;6.53;2.97;;;13.30;93.50;;;13.42;58.94;94963.81;5003109;28;20450;-62
2023/10/29 03:31:30;;;;;;;5.77;3.03;;;13.20;93.60;;;13.37;59.20;94966.09;5002089;28;20552;-63
2023/10/29 03:33:57;;;;;;;10.23;4.00;;;13.20;93.60;;;13.31;59.17;94963.19;5003435;28;20456;-58
2023/10/29 03:36:27;;;;;;;8.93;3.33;;;13.10;93.80;;;13.26;58.88;94967.13;5004300;28;20497;-59
2023/10/29 03:38:55;;;;;;;10.13;3.90;;;13.10;93.80;;;13.18;59.07;94967.06;5002074;28;20993;-58
2023/10/29 03:41:22;;;;;;;5.33;2.50;;;13.00;93.70;;;13.08;59.65;94971.63;5001964;28;20469;-58
2023/10/29 03:43:50;;;;;;;6.03;3.30;;;12.90;93.90;;;13.02;59.46;94973.03;5004153;28;20488;-57
2023/10/29 03:46:17;;;;;;;5.13;3.40;;;12.80;94.10;;;12.99;60.07;94983.91;5003042;28;20450;-60
2023/10/29 03:48:45;;;;;;;5.47;2.53;;;12.80;94.40;;;12.98;59.89;94981.41;5001190;28;20455;-62
2023/10/29 03:51:13;;;;;;;8.00;3.80;;;12.80;94.40;;;12.96;59.44;94983.38;5002826;28;20492;-59
2023/10/29 03:53:40;;;;;;;4.13;3.30;;;12.80;94.50;;;12.93;59.83;94983.69;5003668;28;20465;-57
2023/10/29 03:56:08;;;;;;;5.50;3.90;;;12.80;94.50;;;12.89;60.21;94994.56;5003917;28;20537;-62
2023/10/29 03:58:36;;;;;;;6.77;3.23;;;12.70;94.80;;;12.87;60.16;94999.16;5002517;28;20465;-58
2023/10/29 04:01:04;;;;;;;9.80;3.83;;;12.70;94.90;;;12.85;60.45;94997.66;5000683;28;20506;-62
2023/10/29 04:03:31;;;;;;;10.83;3.57;;;12.70;95.20;;;12.83;60.49;95000.44;5002553;28;20457;-60
2023/10/29 04:05:59;;;;;;;11.37;3.87;;;12.70;95.20;;;12.84;60.39;95015.31;5003348;28;20474;-59
2023/10/29 04:08:27;;;;;;;7.53;3.57;;;12.70;95.10;;;12.82;60.48;94996.13;5001510;28;20517;-57
2023/10/29 04:10:54;;;;;;;7.23;4.07;;;12.60;95.20;;;12.81;60.55;95005.03;5001087;28;21289;-57
2023/10/29 04:13:22;;;;;;;10.33;4.00;;;12.60;95.30;;;12.79;60.67;95001.69;5003212;28;20458;-59
2023/10/29 04:15:49;;;;;;;5.87;3.93;;;12.60;95.50;;;12.76;60.84;94999.38;5001970;28;20486;-63
2023/10/29 04:18:16;;;;;;;2.53;2.30;;;12.60;95.80;;;12.76;60.62;94987.97;5000539;28;20490;-59
2023/10/29 04:20:43;;;;;;;12.80;3.93;;;12.50;95.30;;;12.69;60.56;94979.84;5002693;28;20473;-63
2023/10/29 04:23:12;;;;;;;16.73;8.10;;;12.50;95.70;;;12.66;60.42;94980.16;5002640;28;20453;-60
2023/10/29 04:25:41;;;;;;;5.17;3.23;;;12.50;95.40;;;12.61;60.87;94988.50;5000972;28;20978;-63
2023/10/29 04:28:08;;;;;;;6.47;2.77;;;12.50;95.70;;;12.57;60.77;94988.97;5000521;28;20541;-58
2023/10/29 04:30:36;;;;;;;15.93;4.37;;;12.40;95.70;;;12.55;61.06;94997.84;5002712;28;20466;-58
2023/10/29 04:33:04;;;;;;;6.20;3.53;;;12.40;95.80;;;12.57;61.12;94994.25;5001287;28;20476;-61
2023/10/29 04:35:31;;;;;;;9.00;3.10;;;12.40;96.00;;;12.58;61.23;94999.38;4999460;28;20475;-63
2023/10/29 04:37:58;;;;;;;9.60;3.40;;;12.40;96.00;;;12.59;61.27;94997.56;5001045;28;21049;-60
2023/10/29 04:40:27;;;;;;;5.83;3.10;;;12.40;96.20;;;12.57;61.52;94996.88;5002054;28;21020;-62
2023/10/29 04:42:54;;;;;;;10.53;3.57;;;12.40;96.30;;;12.55;61.58;94997.84;5002535;28;20485;-62
2023/10/29 04:45:22;;;;;;;7.77;3.77;;;12.40;96.40;;;12.60;61.71;94996.56;5000910;28;20545;-63
2023/10/29 04:47:49;;;;;;;7.30;3.20;;;12.40;96.40;;;12.61;61.37;94990.31;5000328;28;20477;-59
2023/10/29 04:50:17;;;;;;;8.67;3.30;;;12.40;96.60;;;12.63;61.77;94999.75;5001939;28;20476;-63
2023/10/29 04:52:44;;;;;;;4.77;3.60;;;12.40;96.50;;;12.64;61.82;95000.56;5002775;28;20449;-60
2023/10/29 04:55:11;;;;;;;7.90;4.13;;;12.50;96.60;;;12.65;61.99;94994.31;5003405;28;20487;-60
2023/10/29 04:57:40;;;;;;;8.97;4.00;;;12.50;96.60;;;12.70;61.74;95000.81;5001222;28;20505;-59
2023/10/29 05:00:09;;;;;;;12.30;4.83;;;12.50;96.70;;;12.73;61.35;95010.22;5001318;28;20481;-59
2023/10/29 05:02:36;;;;;;;9.87;4.90;;;12.50;96.60;;;12.75;61.74;95024.13;5000213;28;20446;-57
2023/10/29 05:05:06;;;;;;;11.20;4.73;;;12.60;96.80;;;12.79;61.32;95028.09;4999743;28;20928;-60
2023/10/29 05:07:35;;;;;;;7.90;3.90;;;12.60;96.70;;;12.82;61.36;95035.72;5001420;28;20446;-59
2023/10/29 05:10:02;;;;;;;7.13;3.77;;;12.60;96.50;;;12.83;61.80;95032.09;5002541;28;20474;-63
2023/10/29 05:12:29;;;;;;;8.60;5.10;;;12.70;96.70;;;12.88;61.24;95040.41;5000118;28;20465;-63
2023/10/29 05:14:58;;;;;;;13.07;5.70;;;12.70;96.50;;;12.94;60.90;95046.91;5000199;28;20483;-58
2023/10/29 05:17:25;;;;;;;8.93;5.57;;;12.70;96.30;;;12.96;61.05;95044.13;4999496;28;20544;-63
2023/10/29 05:19:54;;;;;;;7.50;4.30;;;12.70;96.10;;;12.97;60.69;95046.59;5000267;28;20466;-59
2023/10/29 05:22:22;;;;;;;9.40;4.30;;;12.80;96.00;;;12.99;60.65;95049.09;5002288;28;20453;-63
2023/10/29 05:24:49;;;;;;;4.63;3.43;;;12.80;95.80;;;12.97;60.55;95054.53;5001519;28;20470;-62
2023/10/29 05:27:16;;;;;;;9.40;3.23;;;12.80;95.80;;;12.97;60.22;95059.81;4999758;28;20458;-63
2023/10/29 05:29:44;;;;;;;14.57;4.10;;;12.80;95.80;;;13.00;60.62;95056.88;5001289;28;20469;-63
2023/10/29 05:32:12;;;;;;;12.57;3.73;;;12.80;95.80;;;13.04;60.43;95060.03;5001734;28;20453;-64
2023/10/29 05:34:39;;;;;;;5.70;4.30;;;12.80;95.80;;;13.06;60.50;95058.09;4999870;28;20959;-58
2023/10/29 05:37:07;;;;;;;9.17;3.13;;;12.80;95.80;;;13.14;60.67;95060.78;5000842;28;20850;-63
2023/10/29 05:39:34;;;;;;;10.33;3.70;;;12.90;95.90;;;13.21;60.09;95068.94;5001963;28;20857;-58
2023/10/29 05:42:01;;;;;;;22.10;4.73;;;13.00;95.90;;;13.30;60.34;95072.50;5000289;28;20485;-59
2023/10/29 05:44:29;;;;;;;6.93;4.03;;;13.00;95.80;;;13.40;60.27;95082.03;4999573;28;20816;-63
2023/10/29 05:46:56;;;;;;;11.23;3.73;;;13.10;95.80;;;13.54;60.16;95072.72;4999625;28;20520;-58
2023/10/29 05:49:25;;;;;;;9.50;3.23;;;13.30;96.10;;;13.75;59.76;95082.94;5000298;28;20482;-63
2023/10/29 05:51:52;;;;;;;7.70;4.17;;;13.40;95.90;;;14.14;59.80;95077.28;5002041;28;20454;-63
2023/10/29 05:54:19;;;;;;;18.70;3.67;;;13.80;95.90;;;14.64;58.86;95094.25;5000825;28;20478;-58
2023/10/29 05:56:47;;;;;;;13.57;3.50;;;14.20;95.50;;;15.15;57.85;95104.00;4999201;28;20478;-63
2023/10/29 05:59:14;;;;;;;7.33;3.83;;;14.60;94.80;;;15.69;56.85;95101.75;5001851;28;20485;-59
2023/10/29 06:01:42;;;;;;;5.03;3.70;;;15.10;94.20;;;16.25;55.91;95101.91;5000415;28;20561;-58
2023/10/29 06:04:09;;;;;;;3.57;2.93;;;15.60;93.30;;;16.81;54.57;95109.84;4999940;28;20513;-59
2023/10/29 06:06:37;;;;;;;3.97;3.47;;;16.20;92.30;;;17.37;53.63;95106.28;4999740;28;21109;-59
2023/10/29 06:09:05;;;;;;;11.70;2.87;;;16.70;91.40;;;17.91;52.95;95098.25;5001747;28;20477;-62
2023/10/29 06:11:32;;;;;;;7.73;2.87;;;17.30;90.60;;;18.43;51.86;95099.25;4999507;28;20459;-60
2023/10/29 06:14:01;;;;;;;7.13;2.50;;;17.80;88.80;;;18.95;50.56;95100.16;4999392;28;20462;-64
2023/10/29 06:16:29;;;;;;;13.43;2.13;;;18.30;86.80;;;19.46;49.71;95099.31;4999154;28;20528;-60
2023/10/29 06:18:56;;;;;;;4.10;2.47;;;18.80;85.00;;;19.97;48.90;95108.22;4999539;28;20509;-59
2023/10/29 06:21:23;;;;;;;5.67;2.50;;;19.30;82.50;;;20.46;48.21;95101.22;5001048;28;21056;-62
2023/10/29 06:23:52;;;;;;;6.63;2.30;;;19.70;80.90;;;20.92;47.48;95096.16;5000246;28;20451;-58
2023/10/29 06:26:19;;;;;;;3.70;3.07;;;20.20;79.30;;;21.46;46.44;95107.88;5001927;28;20445;-59
2023/10/29 06:28:47;;;;;;;17.00;3.67;;;20.70;77.80;;;22.01;46.26;95109.63;4996930;28;20966;-63
2023/10/29 06:31:15;;;;;;;7.57;2.50;;;21.30;76.60;;;22.55;45.30;95110.47;4999196;28;20459;-58
2023/10/29 06:33:42;;;;;;;5.83;2.67;;;21.80;75.20;;;23.12;45.06;95115.34;4998131;28;20462;-64
2023/10/29 06:36:09;;;;;;;8.50;3.47;;;22.30;73.40;;;23.66;44.32;95114.03;5000182;28;20457;-59
2023/10/29 06:38:37;;;;;;;7.33;3.50;;;22.90;72.00;;;24.13;42.81;95111.88;5001044;28;20512;-61
2023/10/29 06:41:05;;;;;;;9.23;3.07;;;23.40;70.20;;;24.61;42.79;95117.72;4999796;28;20471;-59
2023/10/29 06:43:35;;;;;;;7.77;3.17;;;23.80;69.00;;;25.04;42.25;95128.44;5000579;28;20887;-65
2023/10/29 06:46:02;;;;;;;8.60;3.00;;;24.30;67.70;;;25.52;41.04;95123.38;5000484;28;21067;-65
2023/10/29 06:48:29;;;;;;;10.10;3.50;;;24.70;66.40;;;25.98;40.48;95130.03;5000737;28;20441;-65
2023/10/29 06:50:56;;;;;;;8.33;4.20;;;25.20;65.00;;;26.48;39.35;95134.22;4998477;28;20483;-65
2023/10/29 06:53:24;;;;;;;7.40;4.20;;;25.70;62.60;;;26.97;38.75;95134.00;5000022;28;20453;-64
2023/10/29 06:55:51;;;;;;;6.30;5.07;;;26.20;61.60;;;27.45;37.66;95135.59;5001275;28;21009;-66
2023/10/29 06:58:20;;;;;;;14.40;4.27;;;26.70;59.30;;;27.95;36.93;95147.66;5001250;28;20489;-64
2023/10/29 07:00:47;;;;;;;7.30;3.70;;;27.10;58.50;;;28.43;36.84;95157.16;5001589;28;20477;-64
2023/10/29 07:03:14;;;;;;;4.80;3.37;;;27.70;57.70;;;28.93;36.37;95157.41;4998762;28;20449;-67
2023/10/29 07:05:42;;;;;;;3.30;2.70;;;28.20;56.40;;;29.44;35.59;95154.63;5003182;28;20477;-64
2023/10/29 07:08:09;;;;;;;10.00;3.20;;;28.70;55.50;;;29.90;35.05;95149.75;5001981;28;20460;-65
2023/10/29 07:10:37;;;;;;;5.80;3.10;;;29.30;54.40;;;30.34;34.01;95152.34;5000100;28;20466;-63
2023/10/29 07:13:05;;;;;;;7.57;2.80;;;29.80;53.30;;;30.71;32.27;95153.50;4998915;28;20480;-65
2023/10/29 07:15:34;;;;;;;9.13;3.00;;;30.40;50.10;;;30.86;32.29;95147.34;5001012;28;20493;-70
2023/10/29 07:18:02;;;;;;;6.93;2.50;;;30.70;50.60;;;30.94;32.01;95160.47;5002124;28;20289;-70
2023/10/29 07:20:29;;;;;;;7.20;3.10;;;30.90;49.80;;;31.07;32.05;95154.59;5005068;28;20222;-70
2023/10/29 07:22:56;;;;;;;8.43;3.50;;;31.20;49.40;;;31.29;32.16;95161.78;5004113;28;20671;-70
2023/10/29 07:25:24;;;;;;;8.10;3.33;;;31.50;48.90;;;31.48;31.23;95158.63;5002237;28;20474;-69
2023/10/29 07:27:52;;;;;;;5.43;2.90;;;31.70;48.20;;;31.61;31.20;95158.16;5003636;28;20213;-70
2023/10/29 07:30:19;;;;;;;6.33;2.33;;;32.00;47.60;;;31.69;30.82;95160.38;5004687;28;20230;-69
2023/10/29 07:32:48;;;;;;;11.23;3.10;;;32.10;47.00;;;31.69;30.49;95167.72;5001719;28;20458;-69
2023/10/29 07:35:15;;;;;;;4.80;2.80;;;32.10;46.50;;;31.69;30.29;95171.25;5002739;28;20474;-70
2023/10/29 07:37:42;;;;;;;4.60;3.13;;;32.00;46.40;;;31.71;29.95;95160.09;5004199;28;20238;-68
2023/10/29 07:40:10;;;;;;;6.93;3.60;;;31.80;46.30;;;31.83;30.17;95157.97;5003485;28;20222;-71
2023/10/29 07:42:38;;;;;;;3.60;3.07;;;31.70;46.20;;;31.97;30.31;95153.66;5002246;28;20207;-69
2023/10/29 07:45:07;;;;;;;52.33;5.30;;;31.70;46.20;;;32.12;29.69;95157.53;5003148;28;20218;-68
2023/10/29 07:47:34;;;;;;;40.53;6.50;;;31.70;46.20;;;32.15;29.97;95148.84;5004010;28;20693;-70
2023/10/29 07:50:04;;;;;;;9.53;3.10;;;31.80;45.80;;;32.08;29.62;95151.75;5002552;28;20238;-67
2023/10/29 07:52:36;;;;;;;5.70;3.60;;;31.70;45.50;;;31.99;29.32;95147.94;5002853;28;20672;-70
2023/10/29 07:55:04;;;;;;;11.17;3.23;;;31.60;45.10;;;32.00;29.53;95138.69;5001983;28;20732;-68
2023/10/29 07:57:31;;;;;;;7.60;3.00;;;31.60;45.30;;;32.13;29.15;95135.50;5001665;28;20696;-70
2023/10/29 07:59:59;;;;;;;7.00;2.80;;;31.60;45.20;;;32.17;28.86;95142.03;5004495;28;20325;-68
2023/10/29 08:02:26;;;;;;;6.00;3.20;;;31.60;44.90;;;32.30;29.06;95148.88;5001920;28;20236;-69
2023/10/29 08:04:55;;;;;;;10.60;3.10;;;31.70;44.80;;;32.55;28.67;95155.41;5001577;28;20223;-70
2023/10/29 08:07:23;;;;;;;6.73;3.20;;;31.90;44.80;;;32.83;28.69;95156.78;5003638;28;20206;-68
2023/10/29 08:09:51;;;;;;;6.87;3.00;;;32.10;44.40;;;33.11;28.00;95167.38;5003992;28;20682;-70
2023/10/29 08:12:18;;;;;;;7.07;3.40;;;32.30;44.00;;;33.32;28.17;95169.00;5001877;28;20210;-70
2023/10/29 08:14:46;;;;;;;11.90;2.77;;;32.60;43.70;;;33.48;27.94;95161.59;5003716;28;20592;-61
2023/10/29 08:17:17;;;;;;;7.40;3.40;;;32.70;43.20;;;33.66;27.07;95167.53;5004206;28;20217;-61
2023/10/29 08:19:44;;;;;;;6.23;3.20;;;32.90;43.00;;;33.80;27.39;95167.78;5002990;28;20329;-62
2023/10/29 08:22:11;;;;;;;10.40;3.00;;;33.00;42.80;;;33.94;27.67;95164.16;5000981;28;20210;-69
2023/10/29 08:24:40;;;;;;;4.22;2.53;;;33.20;42.70;;;34.10;27.38;95153.16;5003229;28;20234;-69
2023/10/29 08:27:08;;;;;;;6.20;2.67;;;33.30;42.30;;;34.19;26.86;95159.66;5002768;28;20294;-59
2023/10/29 08:29:36;;;;;;;6.40;2.75;;;33.40;41.80;;;34.28;26.68;95165.34;5001523;28;20309;-59
2023/10/29 08:32:03;;;;;;;4.18;2.60;;;33.50;41.60;;;34.39;26.70;95155.19;5002442;28;20202;-71
2023/10/29 08:34:30;;;;;;;6.88;2.55;;;33.60;41.60;;;34.53;26.00;95163.53;5000695;28;20313;-61
2023/10/29 08:36:58;;;;;;;9.10;3.45;;;33.70;41.50;;;34.58;26.63;95166.22;5004562;28;20332;-68
2023/10/29 08:39:25;;;;;;;4.05;3.38;;;33.80;41.20;;;34.51;25.51;95165.75;5005274;28;20241;-61
2023/10/29 08:41:54;;;;;;;4.30;2.90;;;33.80;39.40;;;34.10;25.81;95170.34;5001738;28;20727;-68
2023/10/29 08:44:21;;;;;;;11.23;2.92;;;33.60;40.00;;;33.80;26.72;95173.22;5000991;28;20231;-60
2023/10/29 08:46:49;;;;;;;6.45;2.92;;;33.20;40.40;;;33.76;26.63;95173.78;5002922;28;20206;-60
2023/10/29 08:49:16;;;;;;;10.00;2.88;;;33.10;41.00;;;33.89;26.90;95166.91;5002435;28;20226;-68
2023/10/29 08:51:43;;;;;;;5.72;2.40;;;33.10;41.00;;;33.93;25.97;95167.19;5000437;28;20214;-67
2023/10/29 08:54:10;;;;;;;5.55;2.55;;;33.20;40.50;;;33.96;26.08;95161.16;5001354;28;20229;-67
2023/10/29 08:56:38;;;;;;;7.40;2.55;;;33.30;40.70;;;34.09;26.81;95165.16;5002469;28;20558;-68
2023/10/29 08:59:07;;;;;;;15.65;3.47;;;33.30;40.70;;;34.30;26.07;95165.88;5000445;28;20637;-68
2023/10/29 09:01:35;;;;;;;6.70;2.55;;;33.50;40.40;;;34.52;26.16;95162.75;4999094;28;20206;-68
2023/10/29 09:04:03;;;;;;;12.15;3.42;;;33.70;40.20;;;34.63;26.20;95164.28;4999690;28;20245;-68
2023/10/29 09:06:32;;;;;;;9.45;2.83;;;33.90;39.90;;;34.66;25.14;95158.25;4999225;28;20305;-60
2023/10/29 09:08:59;;;;;;;18.77;3.35;;;33.90;40.50;;;34.83;24.95;95160.59;5002303;28;20214;-68
2023/10/29 09:11:26;;;;;;;11.15;3.13;;;34.00;39.70;;;34.96;25.87;95161.84;5000867;28;20218;-67
2023/10/29 09:13:54;;;;;;;8.32;2.83;;;34.20;39.60;;;35.17;25.71;95156.19;4999568;28;20214;-67
2023/10/29 09:16:23;;;;;;;4.43;2.60;;;34.30;39.30;;;35.43;25.34;95155.94;5002124;28;20206;-67
2023/10/29 09:18:50;;;;;;;5.65;2.25;;;34.60;39.00;;;35.61;24.17;95155.16;5002046;28;20226;-67
2023/10/29 09:21:17;;;;;;;2.40;1.98;;;34.80;37.20;;;35.63;24.76;95154.88;5000381;28;20203;-68
2023/10/29 09:23:45;;;;;;;5.68;2.60;;;34.80;38.40;;;35.76;24.87;95150.59;5001277;28;20214;-67
2023/10/29 09:26:12;;;;;;;3.72;2.30;;;34.90;37.80;;;35.82;24.66;95147.56;5002737;28;20217;-69
2023/10/29 09:28:39;;;;;;;13.73;2.65;;;35.00;38.10;;;35.77;24.63;95147.59;5001177;28;20283;-68
2023/10/29 09:31:08;;;;;;;8.05;2.50;;;35.00;37.80;;;35.67;24.68;95143.06;4999979;28;20227;-67
2023/10/29 09:33:38;;;;;;;4.78;1.98;;;35.00;37.60;;;35.58;23.96;95138.53;5000572;28;20201;-67
2023/10/29 09:36:06;;;;;;;8.15;2.58;;;34.90;37.70;;;35.51;24.28;95138.91;5002734;28;20230;-68
2023/10/29 09:38:33;;;;;;;7.47;1.85;;;34.80;37.60;;;35.45;23.98;95134.59;4999030;28;20257;-67
2023/10/29 09:41:01;;;;;;;4.60;1.73;;;34.80;37.70;;;35.43;23.97;95134.03;5002752;28;20654;-68
2023/10/29 09:43:32;;;;;;;5.85;1.52;;;34.80;37.50;;;35.39;23.94;95119.34;5000724;28;20302;-67
2023/10/29 09:46:00;;;;;;;4.68;2.45;;;34.80;37.40;;;35.40;23.88;95126.41;5002893;28;20235;-73
2023/10/29 09:48:27;;;;;;;4.72;2.22;;;34.70;37.50;;;35.51;23.90;95136.16;5003628;28;20770;-69
2023/10/29 09:50:56;;;;;;;8.40;1.67;;;34.80;37.60;;;35.51;24.46;95130.69;5001288;28;20553;-68
2023/10/29 09:53:23;;;;;;;5.55;2.05;;;34.80;37.10;;;35.41;24.43;95126.13;4999727;28;20217;-70
2023/10/29 09:55:51;;;;;;;6.88;2.00;;;34.70;36.40;;;35.27;23.60;95123.28;5001706;28;20222;-69
2023/10/29 09:58:19;;;;;;;4.55;1.65;;;34.70;37.10;;;35.23;24.27;95121.38;4998422;28;20234;-68
2023/10/29 10:00:48;;;;;;;5.88;1.92;;;34.60;37.20;;;35.19;23.93;95124.69;4999783;28;20230;-69
2023/10/29 10:03:15;;;;;;;4.25;1.63;;;34.50;37.20;;;35.23;24.79;95122.22;4999156;28;20265;-69
2023/10/29 10:05:43;;;;;;;3.00;1.83;;;34.50;37.10;;;35.25;23.98;95121.94;5001197;28;20268;-61
2023/10/29 10:08:12;;;;;;;7.80;1.90;;;34.60;36.90;;;35.25;24.31;95120.00;5001110;28;20614;-68
2023/10/29 10:10:41;;;;;;;5.30;1.80;;;34.60;37.10;;;35.28;24.43;95118.63;5001364;28;20227;-69
2023/10/29 10:13:08;;;;;;;7.85;2.10;;;34.60;37.10;;;35.24;23.91;95104.69;5000905;28;20234;-69
2023/10/29 10:15:36;;;;;;;6.43;1.80;;;34.60;36.90;;;35.20;23.96;95095.44;5001192;28;20752;-68
2023/10/29 10:18:04;;;;;;;3.13;1.30;;;34.60;36.30;;;35.03;23.96;95100.53;4998859;28;20199;-61
2023/10/29 10:20:32;;;;;;;6.15;3.33;;;34.50;36.20;;;34.87;24.06;95100.69;4999042;28;20296;-67